• Join FlightAware (Why Join?)
  • Login
  • US Flag 
03:08PM EDT


 

Airport Tracker/Info


-or-


 

Live Flight TrackerFlight Track Log ✈ FFT975 ✈ 27-Jul-2013 ✈ KTTN - KFLL

Flight Track Log - Related Links

Times and Time Zones

All times are in EDT time to prevent confusion due to time zone crossing. See the FFT975 flight status page for this flight to view local times or setup timezone preferences in your user account.

Time Position Orientation Groundspeed Altitude Reporting Facility
EDT Latitude Longitude Course Direction KTS MPH feet Rate Location/Type
06:40AM 40.2490 -74.8510 226° Southwest 169 194 1,900  Level FlightAware
06:40AM 40.2310 -74.8750 226° Southwest 217 250 2,500 1,140 Climbing FlightAware
06:40AM 40.2260 -74.8830 231° Southwest 231 266 2,600 2,760 Climbing FlightAware
06:41AM 40.2010 -74.9170 226° Southwest 239 275 4,400 3,000 Climbing FlightAware
06:41AM 40.1770 -74.9380 214° Southwest 256 295 5,600 2,400 Climbing FlightAware
06:42AM 40.1430 -74.9610 207° Southwest 274 315 6,700 1,320 Climbing FlightAware
06:42AM 40.1100 -74.9830 207° Southwest 274 315 6,900 180 Climbing FlightAware
06:43AM 40.0790 -75.0050 209° Southwest 275 316 6,900  Level FlightAware
06:43AM 40.0470 -75.0260 207° Southwest 275 316 6,900 300 Level FlightAware
06:43AM 40.0340 -75.0350 208° Southwest 275 316 7,100 2,700 Climbing FlightAware
06:44AM 40.0020 -75.0570 208° Southwest 272 313 8,700 2,820 Climbing FlightAware
06:44AM 39.9710 -75.0780 207° Southwest 278 320 9,700 1,260 Climbing FlightAware
06:45AM 39.9380 -75.1000 207° Southwest 284 327 9,900 60 Climbing FlightAware
06:45AM 39.9030 -75.1230 207° Southwest 317 365 9,800  Descending FlightAware
06:46AM 39.8670 -75.1480 208° Southwest 321 369 9,900 60 Climbing FlightAware
06:46AM 39.8290 -75.1740 208° Southwest 319 367 9,900 1,260 Level FlightAware
06:47AM 39.7710 -75.2120 207° Southwest 326 375 11,500 1,380 Climbing FlightAware
06:47AM 39.7140 -75.2510 208° Southwest 330 380 11,900 240 Climbing FlightAware
06:48AM 39.6570 -75.2890 207° Southwest 333 383 11,900  Level FlightAware
06:49AM 39.6190 -75.3050 198° South 334 384 11,900  Level FlightAware
06:49AM 39.5570 -75.3170 188° South 335 386 11,900 1,020 Level FlightAware
06:50AM 39.4740 -75.3320 188° South 339 390 13,500 2,220 Climbing FlightAware
06:51AM 39.4110 -75.3440 188° South 346 398 15,200 2,280 Climbing FlightAware
06:52AM 39.3440 -75.3560 188° South 355 409 16,700 1,200 Climbing FlightAware
06:52AM 39.2770 -75.3680 188° South 354 407 16,900 780 Climbing FlightAware
06:53AM 39.2100 -75.3800 188° South 358 412 17,800 1,740 Climbing FlightAware
06:54AM 39.1510 -75.3890 187° South 359 413 19,200 1,800 Climbing FlightAware
06:55AM 39.0140 -75.4100 187° South 385 443 21,300 1,740 Climbing FlightAware
06:56AM 38.9240 -75.4230 186° South 389 448 23,000 1,920 Climbing FlightAware
06:56AM 38.8700 -75.4320 187° South 393 452 23,900 1,620 Climbing FlightAware
06:57AM 38.7940 -75.4430 186° South 399 459 25,000 1,440 Climbing FlightAware
06:58AM 38.7040 -75.4570 187° South 409 471 26,100 1,320 Climbing FlightAware
06:58AM 38.6300 -75.4680 187° South 419 482 26,900 1,260 Climbing FlightAware
06:59AM 38.5510 -75.4800 187° South 427 491 27,800 1,200 Climbing FlightAware
07:00AM 38.4620 -75.4930 187° South 435 501 28,700 1,200 Climbing FlightAware
07:00AM 38.3860 -75.5110 191° South 437 503 29,500 1,380 Climbing FlightAware
07:01AM 38.3010 -75.5570 203° Southwest 429 494 30,700 1,560 Climbing FlightAware
07:02AM 38.2390 -75.6110 214° Southwest 423 487 31,800 1,500 Climbing FlightAware
07:03AM 38.1670 -75.6780 216° Southwest 424 488 32,800 1,200 Climbing FlightAware
07:03AM 38.1030 -75.7380 216° Southwest 427 491 33,500 840 Climbing FlightAware
07:04AM 38.0480 -75.7900 217° Southwest 427 491 33,900 360 Climbing FlightAware
07:05AM 37.9780 -75.8550 216° Southwest 426 490 34,000 60 Climbing FlightAware
07:05AM 37.9000 -75.9290 217° Southwest 428 493 34,000  Level FlightAware
07:06AM 37.8370 -75.9870 216° Southwest 428 493 34,000 300 Level FlightAware
07:07AM 37.7940 -76.0250 215° Southwest 431 496 34,400 1,080 Climbing FlightAware
07:07AM 37.6900 -76.0950 208° Southwest 430 495 35,600 1,140 Climbing FlightAware
07:08AM 37.6260 -76.1370 207° Southwest 427 491 36,000 300 Climbing FlightAware
07:09AM 37.5650 -76.1770 207° Southwest 428 493 36,000  Level FlightAware
07:09AM 37.4890 -76.2270 208° Southwest 427 491 36,000  Level FlightAware
07:10AM 37.4280 -76.2660 207° Southwest 428 493 36,000  Level FlightAware
07:11AM 37.3450 -76.3200 207° Southwest 428 493 36,000  Level FlightAware
07:11AM 37.2860 -76.3580 207° Southwest 429 494 36,000  Level FlightAware
07:12AM 37.1970 -76.4150 207° Southwest 430 495 36,000  Level FlightAware
07:13AM 37.1260 -76.4610 207° Southwest 431 496 36,000  Level FlightAware
07:14AM 37.0430 -76.5140 207° Southwest 432 497 36,000  Level FlightAware
07:14AM 36.9770 -76.5560 207° Southwest 432 497 36,000  Level FlightAware
07:15AM 36.8860 -76.6140 207° Southwest 432 497 36,000  Level FlightAware
07:16AM 36.8160 -76.6590 207° Southwest 432 497 36,000 -120 Level FlightAware
07:16AM 36.7370 -76.7090 207° Southwest 432 497 35,900  Descending FlightAware
07:17AM 36.6780 -76.7470 207° Southwest 433 498 36,000 60 Climbing FlightAware
07:18AM 36.6130 -76.7880 207° Southwest 434 499 36,000  Level FlightAware
07:18AM 36.5310 -76.8400 207° Southwest 36,000  Level FlightAware
07:19AM 36.4580 -76.8850 206° Southwest 435 501 36,000  Level FlightAware
07:20AM 36.3780 -76.9350 207° Southwest 434 499 36,000  Level FlightAware
07:21AM 36.2980 -76.9860 207° Southwest 425 489 36,000  Level FlightAware
07:21AM 36.2390 -77.0330 213° Southwest 422 486 36,000  Level FlightAware
07:22AM 36.1680 -77.1000 217° Southwest 427 491 36,000  Level FlightAware
07:23AM 36.0980 -77.1660 217° Southwest 428 493 36,000  Level FlightAware
07:24AM 36.0220 -77.2370 217° Southwest 428 493 36,000  Level FlightAware
07:24AM 35.9480 -77.3070 217° Southwest 428 493 36,000  Level FlightAware
07:25AM 35.8730 -77.3770 217° Southwest 429 494 36,000  Level FlightAware
07:26AM 35.8160 -77.4300 217° Southwest 431 496 36,000  Level FlightAware
07:26AM 35.7520 -77.4900 217° Southwest 424 488 36,000  Level FlightAware
07:27AM 35.6530 -77.5820 217° Southwest 430 495 36,000  Level FlightAware
07:28AM 35.5880 -77.6420 217° Southwest 430 495 36,000  Level FlightAware
07:29AM 35.5300 -77.6960 217° Southwest 429 494 36,000  Level FlightAware
07:29AM 35.4800 -77.7420 217° Southwest 429 494 36,000  Level FlightAware
07:30AM 35.4050 -77.8110 217° Southwest 427 491 36,000  Level FlightAware
07:31AM 35.3560 -77.8560 217° Southwest 427 491 36,000  Level FlightAware
07:31AM 35.3080 -77.9010 217° Southwest 427 491 36,000  Level FlightAware
07:32AM 35.2330 -77.9680 216° Southwest 426 490 36,000  Level FlightAware
07:33AM 35.1680 -78.0260 216° Southwest 426 490 36,000  Level FlightAware
07:34AM 35.0670 -78.1200 217° Southwest 426 490 36,000  Level FlightAware
07:34AM 34.9990 -78.1820 217° Southwest 426 490 36,000  Level FlightAware
07:35AM 34.9320 -78.2440 217° Southwest 426 490 36,000  Level FlightAware
07:36AM 34.8560 -78.3130 217° Southwest 426 490 36,000  Level FlightAware
07:36AM 34.8010 -78.3630 217° Southwest 425 489 36,000  Level FlightAware
07:37AM 34.7370 -78.4210 217° Southwest 424 488 36,000  Level FlightAware
07:38AM 34.6670 -78.4840 217° Southwest 423 487 36,000  Level FlightAware
07:38AM 34.6200 -78.5260 216° Southwest 422 486 36,000  Level FlightAware
07:39AM 34.5480 -78.5910 217° Southwest 421 484 36,000  Level FlightAware
07:40AM 34.4910 -78.6400 215° Southwest 421 484 36,000  Level FlightAware
07:41AM 34.3070 -78.8020 216° Southwest 426 490 36,000 -60 Level FlightAware
07:43AM 34.1711 -78.8844 216° Southwest 433 498 35,900 -60 Descending Jacksonville Center
07:44AM 34.0622 -78.9369 202° Southwest 433 498 35,900  Level Jacksonville Center
07:45AM 33.9492 -78.9897 201° Southwest 433 498 35,900  Level Jacksonville Center
07:46AM 33.8342 -79.0447 202° Southwest 438 504 35,900  Level Jacksonville Center
07:47AM 33.7231 -79.0997 202° Southwest 438 504 36,000  Climbing Jacksonville Center
07:48AM 33.6017 -79.1547 201° Southwest 431 496 35,900 -60 Descending Jacksonville Center
07:49AM 33.4883 -79.2069 201° Southwest 426 490 35,900  Level Jacksonville Center
07:50AM 33.3772 -79.2611 202° Southwest 431 496 35,900  Level Jacksonville Center
07:51AM 33.2661 -79.3128 201° Southwest 431 496 35,900  Level Jacksonville Center
07:52AM 33.1756 -79.3561 202° Southwest 431 496 35,900  Level Jacksonville Center
07:53AM 33.0519 -79.4156 202° Southwest 431 496 35,900  Level Jacksonville Center
07:54AM 32.9364 -79.4672 201° Southwest 437 503 35,900  Level Jacksonville Center
07:55AM 32.8231 -79.5233 203° Southwest 442 509 35,900  Level Jacksonville Center
07:56AM 32.7075 -79.5769 201° Southwest 447 514 36,000  Climbing Jacksonville Center
07:57AM 32.5922 -79.6306 201° Southwest 447 514 35,900 -60 Descending Jacksonville Center
07:58AM 32.4786 -79.6839 202° Southwest 447 514 35,900  Level Jacksonville Center
07:59AM 32.3631 -79.7394 202° Southwest 447 514 35,900  Level Jacksonville Center
08:00AM 32.2497 -79.7903 201° Southwest 447 514 35,900  Level Jacksonville Center
08:01AM 32.1361 -79.8456 202° Southwest 447 514 35,900  Level Jacksonville Center
08:02AM 32.0206 -79.8983 201° Southwest 447 514 35,900  Level Jacksonville Center
08:03AM 31.9047 -79.9511 201° Southwest 447 514 35,900  Level Jacksonville Center
08:04AM 31.7892 -80.0061 202° Southwest 452 520 35,900  Level Jacksonville Center
08:05AM 31.6756 -80.0558 200° South 447 514 35,900  Level Jacksonville Center
08:06AM 31.5619 -80.1081 201° Southwest 447 514 35,900  Level Jacksonville Center
08:07AM 31.4461 -80.1628 202° Southwest 447 514 35,900  Level Jacksonville Center
08:12AM 30.7950 -80.4500 202° Southwest 443 510 36,000  Climbing FlightAware
08:13AM 30.7320 -80.4740 198° South 443 510 36,000  Level FlightAware
08:14AM 30.6330 -80.5120 198° South 443 510 36,000  Level FlightAware
08:15AM 30.5730 -80.5340 198° South 443 510 36,000  Level FlightAware
08:16AM 30.4900 -80.5650 198° South 443 510 36,000  Level FlightAware
08:16AM 30.4310 -80.5880 199° South 443 510 36,000  Level FlightAware
08:17AM 30.2730 -80.4410 141° Southeast 450 518 36,000  Level FlightAware
08:17AM 30.1980 -80.4410 180° South 446 513 36,000  Level FlightAware
08:18AM 30.1220 -80.4390 179° South 446 513 36,000  Level FlightAware
08:19AM 30.0280 -80.4390 180° South 447 514 36,000  Level FlightAware
08:19AM 29.9630 -80.4380 179° South 447 514 36,000  Level FlightAware
08:20AM 29.9840 -80.4390 358° North 447 514 36,000  Level FlightAware
08:21AM 29.8820 -80.4390 180° South 447 514 36,000  Level FlightAware
08:22AM 29.8190 -80.4390 180° South 447 514 36,000  Level FlightAware
08:22AM 29.7560 -80.4390 180° South 447 514 36,000  Level FlightAware
08:23AM 29.6750 -80.4390 180° South 447 514 36,000  Level FlightAware
08:24AM 29.6110 -80.4390 180° South 447 514 36,000  Level FlightAware
08:24AM 29.5450 -80.4390 180° South 447 514 36,000  Level FlightAware
08:25AM 29.4600 -80.4390 180° South 447 514 36,000  Level FlightAware
08:26AM 29.3970 -80.4390 180° South 447 514 36,000  Level FlightAware
08:27AM 29.3130 -80.4390 180° South 447 514 36,000  Level FlightAware
08:27AM 28.9230 -80.2800 160° South 468 539 36,000  Level FlightAware
08:28AM 28.8520 -80.2570 164° South 468 539 36,000  Level FlightAware
08:29AM 28.7670 -80.2290 164° South 468 539 36,000  Level FlightAware
08:29AM 28.6700 -80.2000 165° South 463 533 36,000  Level FlightAware
08:30AM 28.5590 -80.1650 165° South 461 531 36,000  Level FlightAware
08:31AM 28.4960 -80.1440 164° South 461 531 36,000 -120 Level FlightAware
08:31AM 28.3960 -80.1140 165° South 459 528 35,900 -120 Descending FlightAware
08:32AM 28.3310 -80.0930 164° South 459 528 35,900  Level FlightAware
08:33AM 28.2320 -80.0620 165° South 462 532 35,900 60 Level FlightAware
08:34AM 28.1470 -80.0360 165° South 464 534 36,000 60 Climbing FlightAware
08:34AM 28.0590 -80.0080 164° South 465 535 36,000  Level FlightAware
08:35AM 27.9890 -79.9850 164° South 465 535 36,000  Level FlightAware
08:36AM 27.9230 -79.9640 164° South 465 535 36,000 -540 Level FlightAware
08:36AM 27.7950 -79.9260 165° South 464 534 35,300 -1,440 Descending FlightAware
08:37AM 27.7040 -79.8980 165° South 471 542 33,900 -2,700 Descending FlightAware
08:38AM 27.6150 -79.8700 164° South 465 535 31,500 -3,660 Descending FlightAware
08:38AM 27.5210 -79.8410 165° South 478 550 28,900 -3,720 Descending FlightAware
08:39AM 27.4270 -79.8170 167° South 473 544 26,200 -3,540 Descending FlightAware
08:40AM 27.3410 -79.8000 170° South 463 533 24,000 -3,240 Descending FlightAware
08:41AM 27.2540 -79.7830 170° South 453 521 21,800 -2,580 Descending FlightAware
08:41AM 27.1720 -79.7660 170° South 439 505 20,500 -2,100 Descending FlightAware
08:42AM 27.0540 -79.7430 170° South 427 491 18,300 -2,340 Descending FlightAware
08:43AM 26.9680 -79.7260 170° South 415 478 16,500 -2,340 Descending FlightAware
08:44AM 26.8870 -79.7100 170° South 404 465 14,900 -2,220 Descending FlightAware
08:44AM 26.8150 -79.6960 170° South 395 455 13,400 -2,220 Descending FlightAware
08:45AM 26.7180 -79.6990 182° South 382 440 11,500 -1,500 Descending FlightAware
08:46AM 26.6310 -79.7400 203° Southwest 331 381 10,600 -840 Descending FlightAware
08:47AM 26.5730 -79.7680 203° Southwest 300 345 10,100 -780 Descending FlightAware
08:47AM 26.5400 -79.7840 203° Southwest 287 330 9,700 -1,200 Descending FlightAware
08:48AM 26.5090 -79.7980 202° Southwest 286 329 9,100 -1,500 Descending FlightAware
08:48AM 26.4850 -79.8100 204° Southwest 284 327 8,600 -1,380 Descending FlightAware
08:49AM 26.4510 -79.8250 202° Southwest 281 323 8,000 -780 Descending FlightAware
08:49AM 26.4160 -79.8420 204° Southwest 284 327 7,900 -120 Descending FlightAware
08:49AM 26.3890 -79.8550 203° Southwest 282 325 7,900 -600 Level FlightAware
08:50AM 26.3670 -79.8630 198° South 280 322 7,500 -1,320 Descending FlightAware
08:50AM 26.3360 -79.8680 188° South 278 320 7,000 -1,500 Descending FlightAware
08:51AM 26.2950 -79.8750 189° South 274 315 6,100 -1,680 Descending FlightAware
08:51AM 26.2720 -79.8790 189° South 271 312 5,600 -1,500 Descending FlightAware
08:51AM 26.2510 -79.8830 190° South 268 308 5,200 -1,620 Descending FlightAware
08:52AM 26.2230 -79.8890 191° South 267 307 4,500 -1,320 Descending FlightAware
08:52AM 26.1880 -79.8950 189° South 252 290 4,100 -660 Descending FlightAware
08:53AM 26.1570 -79.9010 190° South 229 264 3,900 -300 Descending FlightAware
08:53AM 26.1370 -79.9050 190° South 221 254 3,900 -480 Level FlightAware
08:53AM 26.1180 -79.9090 191° South 220 253 3,600 -1,260 Descending FlightAware
08:54AM 26.0950 -79.9200 203° Southwest 220 253 3,000 -1,320 Descending FlightAware
08:54AM 26.0870 -79.9360 241° Southwest 220 253 2,700 -1,140 Descending FlightAware
08:54AM 26.0770 -79.9650 249° West 214 246 2,200 -840 Descending FlightAware
08:55AM 26.0760 -79.9900 267° West 201 231 2,000 -420 Descending FlightAware
08:55AM 26.0760 -80.0300 270° West 189 217 1,800 -540 Descending FlightAware
08:56AM 26.0760 -80.0550 270° West 177 204 1,400 -900 Descending FlightAware
08:56AM 26.0770 -80.0800 273° West 149 171 1,000 -840 Descending FlightAware
08:57AM 26.0770 -80.1080 270° West 131 151 500 -780 Descending FlightAware
08:57AM 26.0770 -80.1180 270° West 131 151 300 -360 Descending FlightAware
08:58AM 26.0770 -80.1400 270° West 130 150 200 -180 Descending FlightAware
09:05AM 26.0726 -80.1527 99° East  Level Estimated
09:06AM 26.0726 -80.1527 90° East  Level Estimated
09:07AM 26.0726 -80.1527 90° East  Level Estimated